Time;durP1;ratioP1;P1;durP2;ratioP2;P2;SDS_P1;SDS_P2;PMS_P1;PMS_P2;Temp;Humidity;BMP_temperature;BMP_pressure;BME280_temperature;BME280_humidity;BME280_pressure;Samples;Min_cycle;Max_cycle;Signal;HPM_P1;HPM_P2
2022/07/10 00:01:20;;;;;;;1.63;1.20;;;;;;;15.65;68.30;102886.03;5070814;28;20040;-77
2022/07/10 00:03:46;;;;;;;2.38;1.17;;;;;;;15.63;68.28;102880.81;5078202;28;20036;-78
2022/07/10 00:06:11;;;;;;;5.43;1.42;;;;;;;15.62;68.24;102881.69;5075694;28;20295;-77
2022/07/10 00:08:37;;;;;;;2.83;1.20;;;;;;;15.61;67.94;102880.00;5094642;28;20048;-77
2022/07/10 00:11:02;;;;;;;1.98;1.33;;;;;;;15.60;68.38;102880.88;5093886;28;20055;-77
2022/07/10 00:13:27;;;;;;;1.92;1.30;;;;;;;15.59;68.35;102878.28;5077716;28;20340;-77
2022/07/10 00:15:53;;;;;;;1.90;1.10;;;;;;;15.58;68.22;102881.84;5098823;28;20067;-78
2022/07/10 00:18:18;;;;;;;0.95;0.88;;;;;;;15.57;68.52;102882.75;5081148;28;20031;-77
2022/07/10 00:20:44;;;;;;;1.77;0.98;;;;;;;15.55;68.48;102877.50;5099137;28;20089;-77
2022/07/10 00:23:09;;;;;;;3.40;1.30;;;;;;;15.54;68.38;102881.94;5080894;28;20223;-77
2022/07/10 00:25:34;;;;;;;1.83;1.15;;;;;;;15.53;68.27;102877.56;5098940;28;20102;-77
2022/07/10 00:28:00;;;;;;;2.58;1.10;;;;;;;15.53;68.56;102874.06;5098612;28;20030;-77
2022/07/10 00:30:25;;;;;;;1.35;1.00;;;;;;;15.51;68.54;102874.09;5097073;28;20469;-77
2022/07/10 00:32:51;;;;;;;1.88;0.93;;;;;;;15.50;68.44;102874.16;5090289;28;20046;-79
2022/07/10 00:35:16;;;;;;;1.88;0.95;;;;;;;15.48;68.84;102876.84;5081578;28;20061;-77
2022/07/10 00:37:42;;;;;;;1.20;1.00;;;;;;;15.48;68.87;102875.94;5083470;28;20056;-77
2022/07/10 00:40:07;;;;;;;2.55;1.05;;;;;;;15.47;68.75;102866.31;5078896;28;20223;-77
2022/07/10 00:42:33;;;;;;;1.02;0.70;;;;;;;15.46;68.82;102862.81;5060509;28;20054;-77
2022/07/10 00:44:59;;;;;;;3.08;1.10;;;;;;;15.44;68.54;102854.06;5030862;28;20111;-78
2022/07/10 00:47:24;;;;;;;3.03;1.40;;;;;;;15.43;68.76;102848.84;5052503;28;20101;-77
2022/07/10 00:49:50;;;;;;;2.70;0.98;;;;;;;15.41;68.71;102848.00;5081188;28;20060;-77
2022/07/10 00:52:17;;;;;;;1.38;0.85;;;;;;;15.40;68.59;102855.06;5043899;28;20316;-79
2022/07/10 00:54:44;;;;;;;1.25;0.80;;;;;;;15.39;68.76;102855.09;5060321;28;20042;-79
2022/07/10 00:57:12;;;;;;;1.40;0.88;;;;;;;15.37;69.02;102852.50;5078762;28;20035;-78
2022/07/10 00:59:37;;;;;;;4.05;1.10;;;;;;;15.36;68.91;102861.34;5078896;28;20069;-79
2022/07/10 01:04:57;;;;;;;1.67;0.90;;;;;;;15.34;69.01;102863.16;5087616;28;20047;-78
2022/07/10 01:07:23;;;;;;;2.50;1.10;;;;;;;15.32;68.99;102850.00;5096084;28;20072;-78
2022/07/10 01:09:49;;;;;;;4.30;0.88;;;;;;;15.31;69.04;102850.91;5078814;28;20098;-78
2022/07/10 01:12:15;;;;;;;1.15;0.70;;;;;;;15.30;69.01;102850.97;5066554;28;20115;-78
2022/07/10 01:14:41;;;;;;;2.25;0.80;;;;;;;15.28;69.00;102850.13;5080724;28;20291;-78
2022/07/10 01:17:08;;;;;;;2.55;0.60;;;;;;;15.28;69.07;102847.47;5080647;28;20028;-78
2022/07/10 01:19:34;;;;;;;2.08;0.80;;;;;;;15.26;69.19;102846.66;5086027;28;20274;-78
2022/07/10 01:21:59;;;;;;;1.88;1.02;;;;;;;15.25;69.38;102839.69;5069650;28;20043;-78
2022/07/10 01:24:24;;;;;;;3.08;0.90;;;;;;;15.24;69.13;102841.44;5098557;28;20048;-78
2022/07/10 01:26:50;;;;;;;1.77;0.75;;;;;;;15.24;69.27;102843.22;5098036;28;20032;-78
2022/07/10 01:29:15;;;;;;;2.08;1.20;;;;;;;15.22;69.23;102840.59;5086738;28;20232;-78
2022/07/10 01:31:41;;;;;;;1.38;0.88;;;;;;;15.20;69.18;102844.22;5073262;28;20042;-78
2022/07/10 01:34:11;;;;;;;1.67;0.80;;;;;;;15.19;69.36;102835.44;5097408;28;20435;-78
2022/07/10 01:36:37;;;;;;;1.25;0.80;;;;;;;15.18;69.17;102835.47;5095687;28;20336;-78
2022/07/10 01:39:04;;;;;;;2.53;0.85;;;;;;;15.17;69.22;102834.59;5076808;28;20035;-78
2022/07/10 01:41:29;;;;;;;1.75;1.05;;;;;;;15.15;69.41;102836.41;5064406;28;20031;-78
2022/07/10 01:43:55;;;;;;;1.45;0.98;;;;;;;15.14;69.55;102838.19;5097062;28;20107;-79
2022/07/10 01:46:20;;;;;;;2.45;1.00;;;;;;;15.12;69.34;102832.09;5067206;28;20046;-79
2022/07/10 01:48:46;;;;;;;1.58;0.95;;;;;;;15.11;69.19;102822.44;5094683;28;20033;-79
2022/07/10 01:51:12;;;;;;;2.78;0.82;;;;;;;15.09;69.11;102824.25;5080171;28;20165;-78
2022/07/10 01:53:38;;;;;;;1.05;0.50;;;;;;;15.08;69.32;102825.19;5083033;28;20133;-79
2022/07/10 01:56:06;;;;;;;4.07;0.88;;;;;;;15.06;69.41;102829.63;5078622;28;20024;-78
2022/07/10 01:58:32;;;;;;;3.70;1.23;;;;;;;15.04;69.49;102828.78;5088709;28;20051;-78
2022/07/10 02:00:57;;;;;;;2.08;0.85;;;;;;;15.02;69.56;102827.97;5090341;28;20062;-78
2022/07/10 02:06:07;;;;;;;2.35;1.27;;;;;;;15.00;69.34;102835.06;5083887;28;20051;-79
2022/07/10 02:08:33;;;;;;;2.35;1.00;;;;;;;14.98;69.67;102819.28;5061160;28;20044;-79
2022/07/10 02:10:58;;;;;;;1.55;0.80;;;;;;;14.96;69.49;102820.25;5043245;28;20098;-79
2022/07/10 02:13:27;;;;;;;1.63;0.85;;;;;;;14.95;69.72;102818.50;5077896;28;20067;-79
2022/07/10 02:15:55;;;;;;;2.70;0.85;;;;;;;14.93;69.77;102815.91;5059862;28;20135;-79
2022/07/10 02:18:21;;;;;;;1.40;0.80;;;;;;;14.93;69.89;102818.53;5085054;28;20042;-78
2022/07/10 02:20:47;;;;;;;1.52;0.80;;;;;;;14.91;69.54;102819.50;5094011;28;20047;-78
2022/07/10 02:23:13;;;;;;;3.13;0.90;;;;;;;14.88;70.03;102815.19;5067257;28;20102;-78
2022/07/10 02:25:38;;;;;;;3.20;0.90;;;;;;;14.88;69.94;102817.81;5090105;28;20108;-78
2022/07/10 02:28:04;;;;;;;4.82;0.80;;;;;;;14.87;70.23;102809.94;5078949;28;20032;-79
2022/07/10 02:30:29;;;;;;;2.97;1.10;;;;;;;14.86;70.51;102808.19;5097280;28;20047;-78
2022/07/10 02:32:55;;;;;;;1.10;0.82;;;;;;;14.86;70.20;102821.38;5078389;28;20016;-79
2022/07/10 02:35:20;;;;;;;2.60;0.80;;;;;;;14.84;70.27;102820.56;5078959;28;20060;-79
2022/07/10 02:37:46;;;;;;;0.77;0.70;;;;;;;14.83;70.09;102818.84;5077686;28;20303;-78
2022/07/10 02:40:11;;;;;;;2.63;1.02;;;;;;;14.82;70.38;102825.88;5080338;28;20052;-78
2022/07/10 02:42:37;;;;;;;2.47;0.85;;;;;;;14.82;70.24;102830.31;5086705;28;20043;-78
2022/07/10 02:45:03;;;;;;;1.75;0.70;;;;;;;14.81;70.39;102820.63;5096679;28;20073;-78
2022/07/10 02:47:29;;;;;;;1.42;0.80;;;;;;;14.78;70.40;102814.53;5092392;28;20331;-78
2022/07/10 02:49:54;;;;;;;1.23;0.88;;;;;;;14.78;70.53;102821.59;5079433;28;20089;-79
2022/07/10 02:52:19;;;;;;;3.17;1.02;;;;;;;14.76;70.47;102826.91;5070449;28;20047;-79
2022/07/10 02:54:45;;;;;;;1.90;0.90;;;;;;;14.74;70.60;102815.53;5096220;28;20104;-78
2022/07/10 02:57:10;;;;;;;4.30;1.40;;;;;;;14.73;70.69;102816.44;5076504;28;20040;-78
2022/07/10 02:59:36;;;;;;;1.55;0.85;;;;;;;14.72;70.81;102814.72;5048536;28;20404;-78
2022/07/10 03:02:01;;;;;;;1.38;0.80;;;;;;;14.71;70.24;102814.75;5076516;28;20362;-78
2022/07/10 03:04:27;;;;;;;2.38;0.80;;;;;;;14.70;70.69;102805.13;5056860;28;20043;-78
2022/07/10 03:06:52;;;;;;;1.83;0.93;;;;;;;14.69;70.65;102804.25;5069545;28;20028;-78
2022/07/10 03:09:17;;;;;;;3.17;1.05;;;;;;;14.67;70.73;102799.94;5067083;28;20109;-78
2022/07/10 03:11:43;;;;;;;3.75;1.00;;;;;;;14.66;70.61;102796.44;5043673;28;20047;-78
2022/07/10 03:14:08;;;;;;;5.80;1.02;;;;;;;14.67;71.00;102805.22;5070722;28;20349;-78
2022/07/10 03:16:34;;;;;;;0.88;0.60;;;;;;;14.66;70.71;102796.44;5069410;28;20028;-79
2022/07/10 03:18:59;;;;;;;2.08;0.80;;;;;;;14.66;71.20;102801.72;5096297;28;20036;-79
2022/07/10 03:21:24;;;;;;;2.45;0.90;;;;;;;14.65;71.22;102789.41;5052996;28;20136;-78
2022/07/10 03:23:50;;;;;;;1.23;0.82;;;;;;;14.66;71.24;102790.28;5085034;28;20036;-79
2022/07/10 03:26:15;;;;;;;0.77;0.70;;;;;;;14.66;71.02;102790.28;5058832;28;20525;-78
2022/07/10 03:28:41;;;;;;;1.48;0.88;;;;;;;14.65;71.27;102792.06;5076975;28;20274;-79
2022/07/10 03:31:06;;;;;;;1.73;0.70;;;;;;;14.66;71.17;102795.56;5077526;28;20028;-78
2022/07/10 03:33:31;;;;;;;1.42;0.93;;;;;;;14.66;71.46;102791.16;5078175;28;20040;-78
2022/07/10 03:35:57;;;;;;;4.10;1.00;;;;;;;14.65;71.26;102786.78;5089376;28;20126;-78
2022/07/10 03:38:22;;;;;;;3.55;1.15;;;;;;;14.65;71.63;102784.16;5095332;28;20103;-78
2022/07/10 03:40:48;;;;;;;2.28;0.95;;;;;;;14.66;71.86;102785.91;5085732;28;20040;-78
2022/07/10 03:43:16;;;;;;;1.90;0.90;;;;;;;14.65;72.01;102780.66;5075366;28;20099;-78
2022/07/10 03:45:41;;;;;;;1.10;0.80;;;;;;;14.66;71.74;102788.53;5077552;28;20067;-78
2022/07/10 03:48:06;;;;;;;2.42;1.08;;;;;;;14.65;71.83;102778.88;5077933;28;20450;-79
2022/07/10 03:50:32;;;;;;;1.60;0.73;;;;;;;14.66;71.94;102775.34;5100493;28;20366;-78
2022/07/10 03:52:58;;;;;;;1.65;0.90;;;;;;;14.66;71.98;102779.72;5095762;28;20052;-78
2022/07/10 03:55:24;;;;;;;1.48;0.90;;;;;;;14.66;71.54;102785.91;5068017;28;20040;-78
2022/07/10 03:57:57;;;;;;;1.27;0.82;;;;;;;14.67;71.66;102776.19;5088606;28;20084;-79
2022/07/10 04:00:24;;;;;;;1.58;0.70;;;;;;;14.67;72.09;102776.19;5097069;28;20055;-79
2022/07/10 04:03:00;;;;;;;1.10;0.80;;;;;;;14.68;72.05;102781.44;5057232;28;20330;-78
2022/07/10 04:05:27;;;;;;;1.85;0.88;;;;;;;14.68;72.26;102783.19;5088343;28;20070;-78
2022/07/10 04:07:53;;;;;;;1.38;0.60;;;;;;;14.68;72.02;102784.06;5098370;28;20349;-79
2022/07/10 04:10:18;;;;;;;1.00;0.90;;;;;;;14.68;72.39;102781.44;5095628;28;20063;-78
2022/07/10 04:12:44;;;;;;;1.88;0.63;;;;;;;14.68;72.00;102778.81;5098420;28;20114;-78
2022/07/10 04:15:10;;;;;;;1.48;0.80;;;;;;;14.70;72.37;102784.03;5096398;28;20100;-78
2022/07/10 04:17:36;;;;;;;1.15;0.60;;;;;;;14.70;72.44;102776.97;5092593;28;20024;-79
2022/07/10 04:20:01;;;;;;;1.88;0.90;;;;;;;14.71;72.31;102780.47;5078453;28;20047;-79
2022/07/10 04:22:27;;;;;;;1.48;0.90;;;;;;;14.71;72.44;102781.34;5078126;28;20044;-78
2022/07/10 04:24:54;;;;;;;1.90;1.02;;;;;;;14.71;72.72;102770.78;5073009;28;20062;-79
2022/07/10 04:27:19;;;;;;;1.70;0.70;;;;;;;14.73;72.69;102773.38;5097759;28;20228;-78
2022/07/10 04:29:44;;;;;;;1.65;0.77;;;;;;;14.74;72.97;102773.34;5080459;28;20055;-78
2022/07/10 04:32:10;;;;;;;0.95;0.82;;;;;;;14.74;72.91;102778.63;5060359;28;20424;-78
2022/07/10 04:34:35;;;;;;;0.80;0.65;;;;;;;14.75;73.01;102771.56;5078592;28;20075;-78
2022/07/10 04:37:01;;;;;;;0.80;0.65;;;;;;;14.76;72.81;102774.16;5077742;28;20032;-78
2022/07/10 04:39:26;;;;;;;1.02;0.80;;;;;;;14.77;72.80;102781.19;5074087;28;20051;-78
2022/07/10 04:41:51;;;;;;;0.75;0.75;;;;;;;14.78;72.78;102790.81;5080840;28;20320;-78
2022/07/10 04:44:18;;;;;;;1.20;0.75;;;;;;;14.79;72.92;102775.88;5059923;28;20082;-79
2022/07/10 04:46:43;;;;;;;1.65;0.75;;;;;;;14.78;72.67;102780.25;5088980;28;20202;-78
2022/07/10 04:49:09;;;;;;;1.20;1.00;;;;;;;14.80;72.89;102779.38;5079768;28;20546;-78
2022/07/10 04:51:34;;;;;;;1.15;0.80;;;;;;;14.82;73.31;102796.88;5073321;28;20020;-79
2022/07/10 04:54:00;;;;;;;1.02;0.93;;;;;;;14.83;73.28;102792.47;5087957;28;20062;-78
2022/07/10 04:56:25;;;;;;;1.90;0.98;;;;;;;14.84;73.32;102794.19;5094610;28;20031;-79
2022/07/10 04:58:51;;;;;;;0.88;0.60;;;;;;;14.84;73.21;102792.41;5095505;28;20035;-79
2022/07/10 05:01:16;;;;;;;0.90;0.70;;;;;;;14.84;73.16;102784.50;5095558;28;20111;-78
2022/07/10 05:03:42;;;;;;;1.52;0.90;;;;;;;14.86;73.20;102787.97;5097833;28;20071;-78
2022/07/10 05:06:07;;;;;;;2.60;0.95;;;;;;;14.87;72.96;102792.34;5095035;28;20040;-79
2022/07/10 05:08:33;;;;;;;0.90;0.80;;;;;;;14.87;73.30;102794.97;5095742;28;20454;-79
2022/07/10 05:10:59;;;;;;;0.82;0.60;;;;;;;14.91;73.37;102795.75;5082075;28;20024;-78
2022/07/10 05:13:24;;;;;;;1.10;0.90;;;;;;;14.89;73.35;102801.06;5050505;28;20058;-78
2022/07/10 05:15:50;;;;;;;1.77;0.88;;;;;;;14.91;73.46;102804.53;5092599;28;20044;-79
2022/07/10 05:18:15;;;;;;;1.30;0.90;;;;;;;14.92;73.23;102798.34;5070532;28;20443;-78
2022/07/10 05:20:43;;;;;;;1.80;1.00;;;;;;;14.94;73.43;102803.59;5089024;28;20111;-78
2022/07/10 05:23:09;;;;;;;1.73;1.33;;;;;;;14.94;73.40;102793.03;5083139;28;20032;-79
2022/07/10 05:25:37;;;;;;;1.10;1.00;;;;;;;14.95;73.63;102800.91;5090655;28;20659;-78
2022/07/10 05:28:03;;;;;;;1.27;0.70;;;;;;;14.95;73.61;102792.13;5096339;28;20078;-78
2022/07/10 05:30:28;;;;;;;2.25;0.82;;;;;;;14.97;73.27;102787.66;5069457;28;20036;-78
2022/07/10 05:32:53;;;;;;;1.15;1.00;;;;;;;14.98;73.40;102792.03;5025493;28;20146;-79
2022/07/10 05:35:19;;;;;;;1.73;1.00;;;;;;;15.00;73.94;102789.34;5076107;28;20042;-79
2022/07/10 05:37:44;;;;;;;3.55;0.93;;;;;;;15.01;74.39;102793.72;5095170;28;20056;-78
2022/07/10 05:40:10;;;;;;;1.42;1.00;;;;;;;15.02;74.59;102783.13;5043421;28;20024;-79
2022/07/10 05:42:35;;;;;;;0.73;0.70;;;;;;;15.05;74.62;102798.00;5078351;28;20028;-79
2022/07/10 05:45:01;;;;;;;2.78;1.00;;;;;;;15.06;75.10;102791.81;5096257;28;20216;-78
2022/07/10 05:47:27;;;;;;;3.63;1.10;;;;;;;15.07;74.75;102786.50;5090713;28;20107;-78
2022/07/10 05:49:52;;;;;;;1.30;0.82;;;;;;;15.09;75.06;102789.09;5076206;28;20209;-77
2022/07/10 05:52:17;;;;;;;1.13;0.75;;;;;;;15.10;74.79;102782.94;5091856;28;20056;-78
2022/07/10 05:54:43;;;;;;;3.83;0.90;;;;;;;15.12;74.78;102783.75;5097190;28;20067;-78
2022/07/10 05:57:08;;;;;;;2.63;0.98;;;;;;;15.13;75.02;102781.06;5077969;28;20494;-78
2022/07/10 05:59:34;;;;;;;3.45;1.15;;;;;;;15.13;74.85;102781.06;5090649;28;20067;-78
2022/07/10 06:02:00;;;;;;;1.58;0.90;;;;;;;15.15;74.87;102779.25;5070483;28;20048;-78
2022/07/10 06:04:26;;;;;;;1.65;1.00;;;;;;;15.17;75.28;102787.09;5082514;28;20397;-78
2022/07/10 06:06:51;;;;;;;4.15;1.00;;;;;;;15.18;75.22;102778.28;5077969;28;20044;-78
2022/07/10 06:09:16;;;;;;;2.38;0.90;;;;;;;15.19;75.35;102780.00;5049725;28;20048;-78
2022/07/10 06:11:44;;;;;;;2.45;0.93;;;;;;;15.22;75.57;102779.03;5065253;28;20044;-78
2022/07/10 06:14:09;;;;;;;3.42;0.95;;;;;;;15.22;75.37;102777.25;5075863;28;20143;-79
2022/07/10 06:16:34;;;;;;;1.83;0.90;;;;;;;15.24;75.75;102777.22;5049296;28;20422;-78
2022/07/10 06:19:00;;;;;;;1.92;0.80;;;;;;;15.26;75.32;102776.28;5089882;28;20090;-78
2022/07/10 06:21:25;;;;;;;2.13;0.82;;;;;;;15.27;74.87;102775.34;5061978;28;20040;-78
2022/07/10 06:23:51;;;;;;;1.25;0.80;;;;;;;15.30;74.99;102777.91;5060759;28;20055;-78
2022/07/10 06:26:16;;;;;;;2.85;1.10;;;;;;;15.31;75.02;102779.63;5076715;28;20340;-78
2022/07/10 06:28:42;;;;;;;1.27;0.65;;;;;;;15.33;74.96;102780.47;5078025;28;20301;-79
2022/07/10 06:31:07;;;;;;;1.35;0.73;;;;;;;15.35;75.47;102775.13;5095437;28;20036;-78
2022/07/10 06:33:35;;;;;;;2.00;1.05;;;;;;;15.36;75.28;102780.38;5072173;28;20309;-79
2022/07/10 06:36:00;;;;;;;0.73;0.70;;;;;;;15.39;75.46;102781.19;5066512;28;20355;-78
2022/07/10 06:38:25;;;;;;;3.95;0.90;;;;;;;15.40;75.28;102782.91;5076142;28;20289;-78
2022/07/10 06:40:52;;;;;;;1.95;0.95;;;;;;;15.41;75.43;102785.53;5085275;28;20051;-78
2022/07/10 06:43:17;;;;;;;2.35;0.90;;;;;;;15.43;75.22;102782.84;5092847;28;20356;-78
2022/07/10 06:45:43;;;;;;;2.67;0.90;;;;;;;15.44;75.31;102790.69;5095248;28;20040;-78
2022/07/10 06:48:09;;;;;;;4.18;1.25;;;;;;;15.45;75.77;102786.28;5072921;28;20582;-79
2022/07/10 06:50:35;;;;;;;1.88;0.77;;;;;;;15.46;75.60;102786.25;5088329;28;20040;-78
2022/07/10 06:53:01;;;;;;;2.90;1.00;;;;;;;15.50;75.23;102781.75;5062349;28;20055;-78
2022/07/10 06:55:28;;;;;;;1.88;0.80;;;;;;;15.52;75.06;102785.19;5094323;28;20389;-79
2022/07/10 06:57:54;;;;;;;2.13;0.90;;;;;;;15.53;75.08;102782.50;5102732;28;20024;-78
2022/07/10 07:00:20;;;;;;;1.63;1.00;;;;;;;15.55;75.48;102793.00;5095937;28;20028;-79
2022/07/10 07:02:45;;;;;;;2.85;0.80;;;;;;;15.59;75.15;102791.13;5089171;28;20016;-79
2022/07/10 07:05:12;;;;;;;3.20;1.05;;;;;;;15.60;75.20;102792.88;5103125;28;20070;-78
2022/07/10 07:07:37;;;;;;;3.95;1.08;;;;;;;15.63;75.07;102779.59;5101133;28;20052;-78
2022/07/10 07:10:04;;;;;;;5.25;1.15;;;;;;;15.65;74.90;102793.59;5096175;28;20066;-78
2022/07/10 07:12:29;;;;;;;1.92;1.00;;;;;;;15.67;75.52;102787.34;5095432;28;20110;-78
2022/07/10 07:14:55;;;;;;;7.32;1.42;;;;;;;15.69;75.42;102795.22;5097094;28;20073;-78
2022/07/10 07:17:33;;;;;;;3.58;1.33;;;;;;;15.71;75.82;102793.41;5092601;28;20143;-79
2022/07/10 07:25:28;;;;;;;2.40;0.98;;;;;;;15.79;75.14;102795.81;5093908;28;20308;-78
2022/07/10 07:27:53;;;;;;;2.33;1.00;;;;;;;15.80;75.59;102790.50;5076869;28;20474;-79
2022/07/10 07:30:18;;;;;;;3.17;0.95;;;;;;;15.83;75.40;102790.41;5082224;28;20047;-79
2022/07/10 07:32:45;;;;;;;6.05;1.50;;;;;;;15.83;75.33;102790.41;5067625;28;20032;-78
2022/07/10 07:35:12;;;;;;;3.38;1.27;;;;;;;15.87;75.27;102796.47;5091160;28;20378;-78
2022/07/10 07:37:41;;;;;;;3.25;1.15;;;;;;;15.87;75.59;102784.09;5091289;28;20032;-78
2022/07/10 07:40:09;;;;;;;3.90;1.13;;;;;;;15.91;75.75;102787.50;5087911;28;20109;-79
2022/07/10 07:42:35;;;;;;;2.38;0.98;;;;;;;15.93;75.21;102788.31;5088690;28;20267;-78
2022/07/10 07:45:00;;;;;;;2.83;0.98;;;;;;;15.96;75.03;102790.88;5079130;28;20066;-78
2022/07/10 07:47:26;;;;;;;2.05;1.10;;;;;;;15.98;74.98;102796.13;5069525;28;20374;-78
2022/07/10 07:49:52;;;;;;;1.65;0.88;;;;;;;15.99;74.67;102796.06;5059056;28;20220;-78
2022/07/10 07:52:17;;;;;;;3.85;1.17;;;;;;;16.01;74.85;102794.25;5082985;28;20036;-78
2022/07/10 07:54:42;;;;;;;4.05;0.93;;;;;;;16.03;74.92;102796.84;5080351;28;20091;-78
2022/07/10 07:57:08;;;;;;;1.80;0.90;;;;;;;16.05;74.76;102798.50;5074425;28;20099;-79
2022/07/10 07:59:33;;;;;;;5.78;1.55;;;;;;;16.05;74.79;102789.72;5058928;28;20403;-78
2022/07/10 08:01:59;;;;;;;1.02;0.85;;;;;;;16.07;74.63;102798.47;5085257;28;20044;-78
2022/07/10 08:04:24;;;;;;;1.48;0.98;;;;;;;16.09;74.46;102800.13;5090791;28;20063;-78
2022/07/10 08:06:52;;;;;;;0.98;0.73;;;;;;;16.11;74.78;102797.44;5088161;28;20257;-79
2022/07/10 08:09:18;;;;;;;2.40;0.90;;;;;;;16.12;74.68;102794.75;5085273;28;20319;-79
2022/07/10 08:11:43;;;;;;;1.45;1.00;;;;;;;16.12;74.71;102797.41;5087594;28;20028;-78
2022/07/10 08:14:09;;;;;;;3.17;1.00;;;;;;;16.16;74.90;102800.81;5065747;28;20075;-79
2022/07/10 08:16:34;;;;;;;4.50;0.98;;;;;;;16.18;75.16;102784.91;5071514;28;20083;-78
2022/07/10 08:18:59;;;;;;;2.63;0.80;;;;;;;16.19;74.92;102786.59;5092676;28;20040;-78
2022/07/10 08:21:25;;;;;;;1.73;0.93;;;;;;;16.21;75.16;102795.34;5082716;28;20248;-78
2022/07/10 08:23:51;;;;;;;3.08;1.05;;;;;;;16.24;75.05;102777.59;5075725;28;20121;-79
2022/07/10 08:26:16;;;;;;;1.65;0.90;;;;;;;16.28;75.18;102791.59;5084574;28;20047;-79
2022/07/10 08:28:42;;;;;;;2.05;0.90;;;;;;;16.32;74.77;102785.28;5089886;28;20347;-78
2022/07/10 08:31:07;;;;;;;1.85;0.80;;;;;;;16.36;74.61;102794.00;5075886;28;20103;-78
2022/07/10 08:33:33;;;;;;;2.30;0.80;;;;;;;16.39;74.45;102791.22;5075163;28;20287;-78
2022/07/10 08:36:00;;;;;;;1.75;0.90;;;;;;;16.41;74.79;102786.72;5096319;28;20059;-78
2022/07/10 08:38:25;;;;;;;2.72;1.00;;;;;;;16.45;74.62;102796.31;5072642;28;20055;-78
2022/07/10 08:40:57;;;;;;;3.92;1.02;;;;;;;16.45;74.12;102797.16;5078165;28;20032;-79
2022/07/10 08:43:25;;;;;;;3.55;1.33;;;;;;;16.48;74.19;102796.19;5085136;28;20275;-78
2022/07/10 08:45:53;;;;;;;;;;;;;;;16.49;73.85;102795.28;5076279;28;20327;-78
2022/07/10 08:48:22;;;;;;;1.53;0.97;;;;;;;16.52;73.81;102792.53;5091467;28;19946;-79
2022/07/10 08:50:48;;;;;;;2.53;0.98;;;;;;;16.53;73.79;102782.81;5071441;28;20350;-78
2022/07/10 08:53:22;;;;;;;1.83;1.00;;;;;;;16.56;74.13;102782.72;5091025;28;20036;-78
2022/07/10 08:55:47;;;;;;;2.80;0.82;;;;;;;16.59;73.74;102786.13;5098236;28;20046;-78
2022/07/10 08:58:13;;;;;;;2.10;0.75;;;;;;;16.60;73.49;102779.91;5057552;28;20031;-78
2022/07/10 09:00:38;;;;;;;1.30;0.80;;;;;;;16.63;73.62;102785.09;5089337;28;20108;-78
2022/07/10 09:03:03;;;;;;;3.17;0.93;;;;;;;16.65;73.65;102782.41;5072523;28;20065;-78
2022/07/10 09:05:29;;;;;;;3.95;0.80;;;;;;;16.67;73.81;102780.56;5096426;28;20036;-79
2022/07/10 09:07:55;;;;;;;2.78;1.10;;;;;;;16.68;73.75;102772.56;5072674;28;20063;-78
2022/07/10 09:10:25;;;;;;;2.85;1.10;;;;;;;16.69;73.40;102774.28;5081710;28;20036;-78
2022/07/10 09:13:01;;;;;;;2.30;1.13;;;;;;;16.69;73.90;102769.00;5091426;28;20103;-78
2022/07/10 09:15:31;;;;;;;2.08;1.00;;;;;;;16.72;73.56;102767.16;5090305;28;20059;-78
2022/07/10 09:18:05;;;;;;;1.67;0.93;;;;;;;16.73;73.70;102764.44;5083304;28;20549;-78
2022/07/10 09:20:38;;;;;;;5.15;1.25;;;;;;;16.76;73.96;102772.28;5088818;28;20032;-78
2022/07/10 09:23:19;;;;;;;2.20;1.05;;;;;;;16.79;73.64;102772.19;5071429;28;20044;-79
2022/07/10 09:25:48;;;;;;;2.17;1.00;;;;;;;16.81;73.68;102774.78;5094287;28;20028;-78
2022/07/10 09:28:17;;;;;;;2.72;1.27;;;;;;;16.81;73.38;102767.69;5090156;28;20047;-78
2022/07/10 09:30:43;;;;;;;1.17;0.82;;;;;;;16.84;73.60;102769.38;5087422;28;20035;-78
2022/07/10 09:33:31;;;;;;;1.85;0.80;;;;;;;16.84;73.29;102764.94;5079933;28;20099;-78
2022/07/10 09:36:12;;;;;;;5.43;1.27;;;;;;;16.86;73.13;102772.84;5087629;28;20042;-79
2022/07/10 09:38:43;;;;;;;2.90;0.93;;;;;;;16.88;72.88;102774.53;5074713;28;20073;-78
2022/07/10 09:41:14;;;;;;;2.80;0.88;;;;;;;16.90;72.99;102769.19;5093894;28;20311;-79
2022/07/10 09:43:57;;;;;;;2.42;0.80;;;;;;;16.92;72.73;102763.81;5077362;28;20314;-78
2022/07/10 09:46:27;;;;;;;2.35;1.05;;;;;;;16.93;72.59;102763.75;5095311;28;20043;-78
2022/07/10 09:49:10;;;;;;;1.08;0.60;;;;;;;16.94;72.64;102764.66;5092293;28;20055;-78
2022/07/10 09:51:41;;;;;;;1.38;0.90;;;;;;;16.95;72.72;102761.91;5065801;28;20028;-78
2022/07/10 09:54:09;;;;;;;1.77;0.95;;;;;;;16.97;72.09;102752.16;5097193;28;20043;-79
2022/07/10 09:56:51;;;;;;;3.10;1.00;;;;;;;16.99;72.22;102749.44;5098054;28;20095;-78
2022/07/10 09:59:18;;;;;;;2.97;0.88;;;;;;;17.01;72.31;102758.19;5069772;28;20047;-78
2022/07/10 10:01:47;;;;;;;2.47;1.10;;;;;;;17.03;72.06;102756.34;5096103;28;20035;-78
2022/07/10 10:04:15;;;;;;;3.10;0.90;;;;;;;17.05;71.81;102751.88;5095403;28;20040;-78
2022/07/10 10:06:41;;;;;;;1.52;1.17;;;;;;;17.07;71.71;102758.81;5067857;28;20032;-78
2022/07/10 10:09:19;;;;;;;3.00;0.90;;;;;;;17.11;71.34;102756.06;5089406;28;20066;-79
2022/07/10 10:11:46;;;;;;;1.73;1.00;;;;;;;17.14;71.29;102753.31;5073937;28;20029;-78
2022/07/10 10:14:12;;;;;;;2.20;0.90;;;;;;;17.17;71.38;102748.75;5068204;28;20036;-78
2022/07/10 10:16:39;;;;;;;0.82;0.70;;;;;;;17.19;71.48;102746.91;5073364;28;20231;-79
2022/07/10 10:22:09;;;;;;;0.85;0.80;;;;;;;17.23;70.83;102747.66;4993611;28;20304;-79
2022/07/10 10:24:38;;;;;;;1.88;1.08;;;;;;;17.25;70.85;102746.66;5054872;28;20056;-78
2022/07/10 10:27:05;;;;;;;2.05;1.20;;;;;;;17.28;71.03;102745.66;5075937;28;20040;-78
2022/07/10 10:29:31;;;;;;;1.17;0.80;;;;;;;17.30;71.19;102743.84;5075304;28;20036;-79
2022/07/10 10:31:57;;;;;;;3.20;0.80;;;;;;;17.32;71.18;102735.81;5047948;28;20111;-79
2022/07/10 10:34:40;;;;;;;1.35;0.77;;;;;;;17.35;71.19;102736.56;5074410;28;20044;-79
2022/07/10 10:37:07;;;;;;;0.63;0.60;;;;;;;17.37;70.81;102724.16;5074501;28;20060;-79
2022/07/10 10:39:52;;;;;;;1.80;0.70;;;;;;;17.39;70.92;102732.00;5074715;28;20212;-78
2022/07/10 10:42:46;;;;;;;2.00;1.00;;;;;;;17.41;70.49;102740.78;5073370;28;20342;-78
2022/07/10 10:45:27;;;;;;;3.42;1.30;;;;;;;17.42;69.89;102735.41;5073118;28;20220;-78
2022/07/10 10:48:06;;;;;;;1.95;0.90;;;;;;;17.44;70.51;102735.34;5074321;28;20222;-79
2022/07/10 10:50:42;;;;;;;;;;;;;;;17.48;70.33;102733.44;5074509;28;20039;-79
2022/07/10 10:53:26;;;;;;;1.92;1.08;;;;;;;17.51;70.59;102735.97;5073691;28;20207;-79
2022/07/10 10:56:00;;;;;;;3.55;0.90;;;;;;;17.53;70.06;102732.34;5066686;28;20227;-78
2022/07/10 10:58:46;;;;;;;3.00;1.00;;;;;;;17.56;70.39;102742.81;5071021;28;20685;-79
2022/07/10 11:01:20;;;;;;;1.73;0.88;;;;;;;17.58;70.12;102742.75;5057820;28;20313;-78
2022/07/10 11:04:04;;;;;;;1.77;0.70;;;;;;;17.60;70.33;102736.47;5069211;28;20379;-78
2022/07/10 11:06:40;;;;;;;1.25;1.00;;;;;;;17.62;69.98;102737.25;5068521;28;20227;-78
2022/07/10 11:09:30;;;;;;;0.88;0.85;;;;;;;17.64;69.59;102732.78;5063552;28;20044;-78
2022/07/10 11:11:59;;;;;;;1.05;0.75;;;;;;;17.66;69.37;102732.69;5037171;28;20117;-78
2022/07/10 11:14:28;;;;;;;3.97;1.10;;;;;;;17.69;68.98;102737.03;5072230;28;20355;-78
2022/07/10 11:16:54;;;;;;;0.75;0.73;;;;;;;17.70;68.53;102726.38;5073677;28;20035;-78
2022/07/10 11:19:23;;;;;;;1.98;0.90;;;;;;;17.71;67.27;102729.88;5081643;28;20060;-78
2022/07/10 11:21:57;;;;;;;2.83;1.00;;;;;;;17.76;68.73;102735.84;5070613;28;20288;-78
2022/07/10 11:25:01;;;;;;;2.33;1.00;;;;;;;17.80;68.50;102734.78;5067196;28;20032;-78
2022/07/10 11:27:33;;;;;;;2.10;0.80;;;;;;;17.84;68.36;102712.53;5070727;28;20040;-78
2022/07/10 11:29:59;;;;;;;0.95;0.77;;;;;;;17.84;66.65;102712.53;5077663;28;20124;-79
2022/07/10 11:32:25;;;;;;;1.75;0.70;;;;;;;17.87;66.90;102706.28;5070456;28;20040;-78
2022/07/10 11:34:50;;;;;;;1.90;0.90;;;;;;;17.88;66.22;102706.19;5072352;28;20085;-78
2022/07/10 11:37:16;;;;;;;2.60;0.90;;;;;;;17.92;66.06;102709.59;5052759;28;20099;-78
2022/07/10 11:39:42;;;;;;;1.80;0.88;;;;;;;17.94;65.28;102710.41;5037589;28;20231;-78
2022/07/10 11:42:08;;;;;;;3.00;0.90;;;;;;;17.93;65.32;102701.56;5050442;28;20040;-78